sensor_id;sensor_type;location;lat;lon;timestamp;pressure;altitude;pressure_sealevel;temperature;humidity
45991;BME280;31721;41.740;-88.000;2023-02-11T00:00:58;100156.50;;;1.24;35.95
45991;BME280;31721;41.740;-88.000;2023-02-11T00:03:25;100159.02;;;1.32;36.42
45991;BME280;31721;41.740;-88.000;2023-02-11T00:05:57;100160.50;;;0.91;36.75
45991;BME280;31721;41.740;-88.000;2023-02-11T00:08:25;100163.02;;;0.81;36.57
45991;BME280;31721;41.740;-88.000;2023-02-11T00:10:54;100166.10;;;0.08;37.20
45991;BME280;31721;41.740;-88.000;2023-02-11T00:13:23;100164.85;;;0.53;37.20
45991;BME280;31721;41.740;-88.000;2023-02-11T00:15:51;100165.02;;;0.70;37.06
45991;BME280;31721;41.740;-88.000;2023-02-11T00:18:19;100163.25;;;0.68;36.93
45991;BME280;31721;41.740;-88.000;2023-02-11T00:20:47;100164.85;;;0.60;36.96
45991;BME280;31721;41.740;-88.000;2023-02-11T00:23:15;100164.68;;;0.61;36.98
45991;BME280;31721;41.740;-88.000;2023-02-11T00:25:44;100163.63;;;0.43;37.08
45991;BME280;31721;41.740;-88.000;2023-02-11T00:28:12;100161.77;;;0.45;37.54
45991;BME280;31721;41.740;-88.000;2023-02-11T00:30:40;100169.18;;;0.62;37.67
45991;BME280;31721;41.740;-88.000;2023-02-11T00:33:08;100167.56;;;0.30;37.39
45991;BME280;31721;41.740;-88.000;2023-02-11T00:35:36;100168.46;;;-0.17;38.62
45991;BME280;31721;41.740;-88.000;2023-02-11T00:38:05;100174.99;;;0.26;37.89
45991;BME280;31721;41.740;-88.000;2023-02-11T00:40:33;100176.10;;;0.12;37.74
45991;BME280;31721;41.740;-88.000;2023-02-11T00:43:01;100180.74;;;0.29;38.16
45991;BME280;31721;41.740;-88.000;2023-02-11T00:45:29;100189.08;;;0.20;38.16
45991;BME280;31721;41.740;-88.000;2023-02-11T00:47:57;100194.37;;;0.56;38.41
45991;BME280;31721;41.740;-88.000;2023-02-11T00:50:24;100198.13;;;0.63;38.27
45991;BME280;31721;41.740;-88.000;2023-02-11T00:52:52;100196.79;;;0.61;38.29
45991;BME280;31721;41.740;-88.000;2023-02-11T00:55:20;100199.91;;;0.59;38.27
45991;BME280;31721;41.740;-88.000;2023-02-11T00:57:47;100202.46;;;0.57;38.37
45991;BME280;31721;41.740;-88.000;2023-02-11T01:00:16;100205.47;;;0.40;38.28
45991;BME280;31721;41.740;-88.000;2023-02-11T01:02:44;100208.98;;;0.16;38.77
45991;BME280;31721;41.740;-88.000;2023-02-11T01:05:13;100208.80;;;0.30;39.02
45991;BME280;31721;41.740;-88.000;2023-02-11T01:07:40;100212.09;;;0.35;39.03
45991;BME280;31721;41.740;-88.000;2023-02-11T01:10:08;100211.09;;;0.34;39.31
45991;BME280;31721;41.740;-88.000;2023-02-11T01:12:37;100206.90;;;-0.03;39.15
45991;BME280;31721;41.740;-88.000;2023-02-11T01:15:07;100205.09;;;-0.21;38.73
45991;BME280;31721;41.740;-88.000;2023-02-11T01:17:35;100207.49;;;-0.02;39.32
45991;BME280;31721;41.740;-88.000;2023-02-11T01:20:04;100212.13;;;-0.28;39.14
45991;BME280;31721;41.740;-88.000;2023-02-11T01:22:32;100214.28;;;-0.67;39.81
45991;BME280;31721;41.740;-88.000;2023-02-11T01:25:00;100213.22;;;-0.89;40.10
45991;BME280;31721;41.740;-88.000;2023-02-11T01:27:28;100222.21;;;-0.99;40.13
45991;BME280;31721;41.740;-88.000;2023-02-11T01:29:55;100220.12;;;-0.83;40.45
45991;BME280;31721;41.740;-88.000;2023-02-11T01:32:23;100214.94;;;-0.70;40.08
45991;BME280;31721;41.740;-88.000;2023-02-11T01:34:50;100218.58;;;-0.68;40.64
45991;BME280;31721;41.740;-88.000;2023-02-11T01:37:18;100220.80;;;-0.74;39.62
45991;BME280;31721;41.740;-88.000;2023-02-11T01:39:46;100226.61;;;-0.81;39.91
45991;BME280;31721;41.740;-88.000;2023-02-11T01:42:15;100233.71;;;-0.84;39.76
45991;BME280;31721;41.740;-88.000;2023-02-11T01:44:43;100232.32;;;-0.72;40.10
45991;BME280;31721;41.740;-88.000;2023-02-11T01:47:11;100235.93;;;-0.73;40.13
45991;BME280;31721;41.740;-88.000;2023-02-11T01:49:41;100239.54;;;-0.73;39.97
45991;BME280;31721;41.740;-88.000;2023-02-11T01:52:13;100238.78;;;-0.58;40.21
45991;BME280;31721;41.740;-88.000;2023-02-11T01:54:48;100243.35;;;-0.82;39.98
45991;BME280;31721;41.740;-88.000;2023-02-11T01:57:20;100248.34;;;-0.72;40.82
45991;BME280;31721;41.740;-88.000;2023-02-11T01:59:59;100249.37;;;-0.86;40.19
45991;BME280;31721;41.740;-88.000;2023-02-11T02:02:33;100251.43;;;-0.88;40.30
45991;BME280;31721;41.740;-88.000;2023-02-11T02:05:08;100248.01;;;-1.10;40.72
45991;BME280;31721;41.740;-88.000;2023-02-11T02:07:45;100252.82;;;-1.11;40.18
45991;BME280;31721;41.740;-88.000;2023-02-11T02:10:18;100253.73;;;-1.01;39.82
45991;BME280;31721;41.740;-88.000;2023-02-11T02:12:47;100250.87;;;-1.03;39.99
45991;BME280;31721;41.740;-88.000;2023-02-11T02:15:21;100251.91;;;-0.91;40.08
45991;BME280;31721;41.740;-88.000;2023-02-11T02:17:57;100249.85;;;-1.37;40.35
45991;BME280;31721;41.740;-88.000;2023-02-11T02:25:54;100257.65;;;-1.31;40.22
45991;BME280;31721;41.740;-88.000;2023-02-11T02:28:41;100265.48;;;-1.30;40.29
45991;BME280;31721;41.740;-88.000;2023-02-11T02:31:30;100260.65;;;-1.08;40.36
45991;BME280;31721;41.740;-88.000;2023-02-11T02:34:05;100264.54;;;-1.07;40.12
45991;BME280;31721;41.740;-88.000;2023-02-11T02:36:42;100263.59;;;-1.07;40.15
45991;BME280;31721;41.740;-88.000;2023-02-11T02:39:20;100267.92;;;-1.09;39.99
45991;BME280;31721;41.740;-88.000;2023-02-11T02:41:51;100266.28;;;-1.13;40.07
45991;BME280;31721;41.740;-88.000;2023-02-11T02:44:20;100266.53;;;-1.12;40.32
45991;BME280;31721;41.740;-88.000;2023-02-11T02:46:47;100268.71;;;-1.15;40.14
45991;BME280;31721;41.740;-88.000;2023-02-11T02:49:15;100266.56;;;-1.18;40.11
45991;BME280;31721;41.740;-88.000;2023-02-11T02:51:58;100263.76;;;-1.22;40.15
45991;BME280;31721;41.740;-88.000;2023-02-11T02:54:41;100265.72;;;-1.31;40.27
45991;BME280;31721;41.740;-88.000;2023-02-11T02:57:26;100263.98;;;-1.19;40.47
45991;BME280;31721;41.740;-88.000;2023-02-11T03:00:05;100266.67;;;-1.22;40.33
45991;BME280;31721;41.740;-88.000;2023-02-11T03:02:47;100272.13;;;-1.30;40.32
45991;BME280;31721;41.740;-88.000;2023-02-11T03:05:22;100271.29;;;-1.64;40.15
45991;BME280;31721;41.740;-88.000;2023-02-11T03:07:58;100268.42;;;-1.42;40.39
45991;BME280;31721;41.740;-88.000;2023-02-11T03:10:31;100264.23;;;-1.23;40.72
45991;BME280;31721;41.740;-88.000;2023-02-11T03:13:02;100270.79;;;-1.24;40.44
45991;BME280;31721;41.740;-88.000;2023-02-11T03:15:37;100267.94;;;-1.19;40.61
45991;BME280;31721;41.740;-88.000;2023-02-11T03:18:08;100273.29;;;-1.18;40.53
45991;BME280;31721;41.740;-88.000;2023-02-11T03:20:40;100274.59;;;-1.12;40.72
45991;BME280;31721;41.740;-88.000;2023-02-11T03:23:12;100273.82;;;-1.16;40.49
45991;BME280;31721;41.740;-88.000;2023-02-11T03:25:47;100272.64;;;-1.03;40.63
45991;BME280;31721;41.740;-88.000;2023-02-11T03:28:22;100280.16;;;-1.23;40.39
45991;BME280;31721;41.740;-88.000;2023-02-11T03:30:59;100282.95;;;-1.13;40.59
45991;BME280;31721;41.740;-88.000;2023-02-11T03:33:36;100286.45;;;-1.05;40.48
45991;BME280;31721;41.740;-88.000;2023-02-11T03:36:08;100287.09;;;-1.00;40.11
45991;BME280;31721;41.740;-88.000;2023-02-11T03:38:43;100285.25;;;-0.96;40.18
45991;BME280;31721;41.740;-88.000;2023-02-11T03:41:13;100286.69;;;-0.95;40.27
45991;BME280;31721;41.740;-88.000;2023-02-11T03:43:45;100285.17;;;-1.00;40.27
45991;BME280;31721;41.740;-88.000;2023-02-11T03:46:18;100289.05;;;-0.93;40.18
45991;BME280;31721;41.740;-88.000;2023-02-11T03:48:50;100286.87;;;-0.92;40.29
45991;BME280;31721;41.740;-88.000;2023-02-11T03:51:20;100283.44;;;-1.06;40.42
45991;BME280;31721;41.740;-88.000;2023-02-11T03:53:53;100285.08;;;-0.89;40.70
45991;BME280;31721;41.740;-88.000;2023-02-11T03:56:25;100282.19;;;-0.90;40.41
45991;BME280;31721;41.740;-88.000;2023-02-11T03:58:55;100283.75;;;-0.88;40.33
45991;BME280;31721;41.740;-88.000;2023-02-11T04:01:23;100283.48;;;-0.86;40.28
45991;BME280;31721;41.740;-88.000;2023-02-11T04:03:52;100282.04;;;-0.88;40.16
45991;BME280;31721;41.740;-88.000;2023-02-11T04:06:20;100281.24;;;-0.93;40.10
45991;BME280;31721;41.740;-88.000;2023-02-11T04:08:48;100278.54;;;-0.92;40.24
45991;BME280;31721;41.740;-88.000;2023-02-11T04:11:16;100280.78;;;-0.94;40.17
45991;BME280;31721;41.740;-88.000;2023-02-11T04:13:44;100281.34;;;-0.96;40.25
45991;BME280;31721;41.740;-88.000;2023-02-11T04:16:12;100281.34;;;-0.96;40.29
45991;BME280;31721;41.740;-88.000;2023-02-11T04:18:40;100283.52;;;-0.98;40.18
45991;BME280;31721;41.740;-88.000;2023-02-11T04:21:08;100285.19;;;-1.03;40.23
45991;BME280;31721;41.740;-88.000;2023-02-11T04:23:36;100282.78;;;-1.06;40.17
45991;BME280;31721;41.740;-88.000;2023-02-11T04:26:04;100281.67;;;-1.07;40.39
45991;BME280;31721;41.740;-88.000;2023-02-11T04:28:32;100280.57;;;-1.10;40.41
45991;BME280;31721;41.740;-88.000;2023-02-11T04:31:00;100283.06;;;-1.10;40.32
45991;BME280;31721;41.740;-88.000;2023-02-11T04:33:28;100281.28;;;-1.14;40.41
45991;BME280;31721;41.740;-88.000;2023-02-11T04:35:56;100281.66;;;-1.14;40.32
45991;BME280;31721;41.740;-88.000;2023-02-11T04:38:24;100278.11;;;-1.14;40.28
45991;BME280;31721;41.740;-88.000;2023-02-11T04:40:52;100276.13;;;-0.98;40.15
45991;BME280;31721;41.740;-88.000;2023-02-11T04:43:20;100280.44;;;-1.02;40.24
45991;BME280;31721;41.740;-88.000;2023-02-11T04:45:48;100278.28;;;-1.13;40.16
45991;BME280;31721;41.740;-88.000;2023-02-11T04:48:16;100280.07;;;-1.26;40.28
45991;BME280;31721;41.740;-88.000;2023-02-11T04:50:44;100278.04;;;-1.30;40.28
45991;BME280;31721;41.740;-88.000;2023-02-11T04:53:11;100277.46;;;-1.33;40.56
45991;BME280;31721;41.740;-88.000;2023-02-11T04:55:39;100277.25;;;-1.33;40.79
45991;BME280;31721;41.740;-88.000;2023-02-11T04:58:07;100275.39;;;-1.21;40.89
45991;BME280;31721;41.740;-88.000;2023-02-11T05:00:34;100273.25;;;-1.21;40.99
45991;BME280;31721;41.740;-88.000;2023-02-11T05:03:02;100273.24;;;-1.25;41.08
45991;BME280;31721;41.740;-88.000;2023-02-11T05:05:30;100275.74;;;-1.39;41.01
45991;BME280;31721;41.740;-88.000;2023-02-11T05:07:58;100275.68;;;-1.51;41.14
45991;BME280;31721;41.740;-88.000;2023-02-11T05:10:26;100276.97;;;-1.54;41.34
45991;BME280;31721;41.740;-88.000;2023-02-11T05:12:53;100276.12;;;-1.48;41.43
45991;BME280;31721;41.740;-88.000;2023-02-11T05:15:21;100277.07;;;-1.62;41.17
45991;BME280;31721;41.740;-88.000;2023-02-11T05:17:49;100271.76;;;-1.66;41.74
45991;BME280;31721;41.740;-88.000;2023-02-11T05:20:17;100268.55;;;-1.71;42.10
45991;BME280;31721;41.740;-88.000;2023-02-11T05:22:45;100263.00;;;-1.67;42.33
45991;BME280;31721;41.740;-88.000;2023-02-11T05:25:13;100260.96;;;-1.71;42.50
45991;BME280;31721;41.740;-88.000;2023-02-11T05:27:40;100263.00;;;-1.64;42.71
45991;BME280;31721;41.740;-88.000;2023-02-11T05:30:10;100262.71;;;-1.68;42.78
45991;BME280;31721;41.740;-88.000;2023-02-11T05:32:38;100263.94;;;-1.94;42.82
45991;BME280;31721;41.740;-88.000;2023-02-11T05:35:06;100270.57;;;-1.73;43.23
45991;BME280;31721;41.740;-88.000;2023-02-11T05:37:34;100268.64;;;-1.75;43.23
45991;BME280;31721;41.740;-88.000;2023-02-11T05:40:02;100271.98;;;-1.76;43.14
45991;BME280;31721;41.740;-88.000;2023-02-11T05:42:29;100271.13;;;-1.80;42.93
45991;BME280;31721;41.740;-88.000;2023-02-11T05:44:57;100273.98;;;-1.83;42.76
45991;BME280;31721;41.740;-88.000;2023-02-11T05:47:25;100272.80;;;-1.88;42.53
45991;BME280;31721;41.740;-88.000;2023-02-11T05:49:53;100278.66;;;-1.90;42.51
45991;BME280;31721;41.740;-88.000;2023-02-11T05:52:21;100276.22;;;-1.96;42.55
45991;BME280;31721;41.740;-88.000;2023-02-11T05:54:50;100276.42;;;-2.02;42.90
45991;BME280;31721;41.740;-88.000;2023-02-11T05:57:18;100277.93;;;-2.05;42.94
45991;BME280;31721;41.740;-88.000;2023-02-11T05:59:46;100278.93;;;-2.09;43.15
45991;BME280;31721;41.740;-88.000;2023-02-11T06:02:13;100275.44;;;-2.18;43.14
45991;BME280;31721;41.740;-88.000;2023-02-11T06:04:41;100272.36;;;-2.15;43.23
45991;BME280;31721;41.740;-88.000;2023-02-11T06:07:09;100270.45;;;-2.16;43.26
45991;BME280;31721;41.740;-88.000;2023-02-11T06:09:37;100271.03;;;-2.27;43.34
45991;BME280;31721;41.740;-88.000;2023-02-11T06:12:04;100269.29;;;-2.21;43.33
45991;BME280;31721;41.740;-88.000;2023-02-11T06:14:32;100268.13;;;-2.25;43.43
45991;BME280;31721;41.740;-88.000;2023-02-11T06:17:01;100267.96;;;-2.31;43.50
45991;BME280;31721;41.740;-88.000;2023-02-11T06:19:28;100263.39;;;-2.36;43.66
45991;BME280;31721;41.740;-88.000;2023-02-11T06:21:56;100259.98;;;-2.32;43.83
45991;BME280;31721;41.740;-88.000;2023-02-11T06:24:25;100255.62;;;-2.34;43.87
45991;BME280;31721;41.740;-88.000;2023-02-11T06:26:52;100252.96;;;-2.39;43.78
45991;BME280;31721;41.740;-88.000;2023-02-11T06:29:20;100253.86;;;-2.34;44.06
45991;BME280;31721;41.740;-88.000;2023-02-11T06:31:47;100254.37;;;-2.45;44.10
45991;BME280;31721;41.740;-88.000;2023-02-11T06:34:15;100258.57;;;-2.46;44.34
45991;BME280;31721;41.740;-88.000;2023-02-11T06:36:43;100258.44;;;-2.38;44.46
45991;BME280;31721;41.740;-88.000;2023-02-11T06:39:11;100253.73;;;-2.43;44.21
45991;BME280;31721;41.740;-88.000;2023-02-11T06:41:39;100254.92;;;-2.43;44.24
45991;BME280;31721;41.740;-88.000;2023-02-11T06:44:07;100259.04;;;-2.57;44.39
45991;BME280;31721;41.740;-88.000;2023-02-11T06:46:35;100260.07;;;-2.51;44.29
45991;BME280;31721;41.740;-88.000;2023-02-11T06:49:02;100260.19;;;-2.61;44.25
45991;BME280;31721;41.740;-88.000;2023-02-11T06:51:30;100262.27;;;-2.58;44.44
45991;BME280;31721;41.740;-88.000;2023-02-11T06:53:58;100260.41;;;-2.59;44.82
45991;BME280;31721;41.740;-88.000;2023-02-11T06:56:26;100264.95;;;-2.64;44.56
45991;BME280;31721;41.740;-88.000;2023-02-11T06:58:54;100265.87;;;-2.76;44.50
45991;BME280;31721;41.740;-88.000;2023-02-11T07:01:24;100269.09;;;-2.71;44.51
45991;BME280;31721;41.740;-88.000;2023-02-11T07:03:52;100270.42;;;-2.76;44.68
45991;BME280;31721;41.740;-88.000;2023-02-11T07:06:22;100271.76;;;-2.79;44.82
45991;BME280;31721;41.740;-88.000;2023-02-11T07:08:50;100277.14;;;-2.80;44.91
45991;BME280;31721;41.740;-88.000;2023-02-11T07:11:20;100275.55;;;-2.73;44.93
45991;BME280;31721;41.740;-88.000;2023-02-11T07:13:48;100272.55;;;-2.91;44.88
45991;BME280;31721;41.740;-88.000;2023-02-11T07:16:17;100272.75;;;-2.87;45.09
45991;BME280;31721;41.740;-88.000;2023-02-11T07:18:46;100270.84;;;-3.02;45.03
45991;BME280;31721;41.740;-88.000;2023-02-11T07:21:16;100266.68;;;-2.95;45.20
45991;BME280;31721;41.740;-88.000;2023-02-11T07:23:45;100264.34;;;-2.99;45.15
45991;BME280;31721;41.740;-88.000;2023-02-11T07:26:15;100263.98;;;-2.99;45.25
45991;BME280;31721;41.740;-88.000;2023-02-11T07:28:44;100263.58;;;-3.06;45.23
45991;BME280;31721;41.740;-88.000;2023-02-11T07:31:14;100263.49;;;-2.88;45.22
45991;BME280;31721;41.740;-88.000;2023-02-11T07:33:43;100265.61;;;-2.90;45.14
45991;BME280;31721;41.740;-88.000;2023-02-11T07:36:13;100263.64;;;-2.98;45.04
45991;BME280;31721;41.740;-88.000;2023-02-11T07:38:41;100261.45;;;-2.94;44.84
45991;BME280;31721;41.740;-88.000;2023-02-11T07:41:11;100258.94;;;-2.91;44.88
45991;BME280;31721;41.740;-88.000;2023-02-11T07:43:39;100256.71;;;-2.95;45.07
45991;BME280;31721;41.740;-88.000;2023-02-11T07:46:10;100259.97;;;-2.94;45.18
45991;BME280;31721;41.740;-88.000;2023-02-11T07:48:38;100263.19;;;-2.98;45.16
45991;BME280;31721;41.740;-88.000;2023-02-11T07:51:07;100264.13;;;-3.01;45.28
45991;BME280;31721;41.740;-88.000;2023-02-11T07:53:36;100265.75;;;-3.02;45.49
45991;BME280;31721;41.740;-88.000;2023-02-11T07:56:05;100268.21;;;-2.99;45.53
45991;BME280;31721;41.740;-88.000;2023-02-11T07:58:34;100272.42;;;-3.04;45.35
45991;BME280;31721;41.740;-88.000;2023-02-11T08:01:02;100269.00;;;-2.75;45.31
45991;BME280;31721;41.740;-88.000;2023-02-11T08:03:30;100265.87;;;-2.92;45.18
45991;BME280;31721;41.740;-88.000;2023-02-11T08:05:58;100262.56;;;-2.80;45.13
45991;BME280;31721;41.740;-88.000;2023-02-11T08:08:29;100261.64;;;-2.66;45.15
45991;BME280;31721;41.740;-88.000;2023-02-11T08:10:57;100264.49;;;-2.64;45.00
45991;BME280;31721;41.740;-88.000;2023-02-11T08:13:24;100265.58;;;-2.56;44.85
45991;BME280;31721;41.740;-88.000;2023-02-11T08:15:52;100266.26;;;-2.60;44.88
45991;BME280;31721;41.740;-88.000;2023-02-11T08:18:23;100266.40;;;-2.55;44.74
45991;BME280;31721;41.740;-88.000;2023-02-11T08:20:51;100262.32;;;-2.67;44.89
45991;BME280;31721;41.740;-88.000;2023-02-11T08:23:19;100265.91;;;-2.69;44.85
45991;BME280;31721;41.740;-88.000;2023-02-11T08:25:47;100270.28;;;-2.59;45.01
45991;BME280;31721;41.740;-88.000;2023-02-11T08:28:14;100267.09;;;-2.75;44.72
45991;BME280;31721;41.740;-88.000;2023-02-11T08:30:42;100265.49;;;-2.66;45.04
45991;BME280;31721;41.740;-88.000;2023-02-11T08:33:10;100260.35;;;-2.90;44.89
45991;BME280;31721;41.740;-88.000;2023-02-11T08:35:38;100258.83;;;-2.92;45.21
45991;BME280;31721;41.740;-88.000;2023-02-11T08:38:05;100259.53;;;-2.87;45.37
45991;BME280;31721;41.740;-88.000;2023-02-11T08:40:33;100256.99;;;-2.86;45.45
45991;BME280;31721;41.740;-88.000;2023-02-11T08:43:01;100254.59;;;-2.94;45.28
45991;BME280;31721;41.740;-88.000;2023-02-11T08:45:28;100250.32;;;-3.04;45.47
45991;BME280;31721;41.740;-88.000;2023-02-11T08:47:56;100245.92;;;-2.95;45.89
45991;BME280;31721;41.740;-88.000;2023-02-11T08:50:24;100242.71;;;-2.93;45.89
45991;BME280;31721;41.740;-88.000;2023-02-11T08:52:52;100236.84;;;-2.77;45.88
45991;BME280;31721;41.740;-88.000;2023-02-11T08:55:19;100233.45;;;-2.83;45.89
45991;BME280;31721;41.740;-88.000;2023-02-11T08:57:47;100235.79;;;-2.76;45.84
45991;BME280;31721;41.740;-88.000;2023-02-11T09:00:16;100236.33;;;-2.79;45.84
45991;BME280;31721;41.740;-88.000;2023-02-11T09:02:44;100244.00;;;-2.86;45.94
45991;BME280;31721;41.740;-88.000;2023-02-11T09:05:12;100249.74;;;-2.68;46.03
45991;BME280;31721;41.740;-88.000;2023-02-11T09:07:39;100245.27;;;-2.81;45.98
45991;BME280;31721;41.740;-88.000;2023-02-11T09:10:08;100244.55;;;-2.88;45.92
45991;BME280;31721;41.740;-88.000;2023-02-11T09:12:35;100246.36;;;-2.78;45.96
45991;BME280;31721;41.740;-88.000;2023-02-11T09:15:03;100242.62;;;-3.02;45.88
45991;BME280;31721;41.740;-88.000;2023-02-11T09:17:31;100252.06;;;-3.05;46.18
45991;BME280;31721;41.740;-88.000;2023-02-11T09:19:59;100251.00;;;-2.88;46.17
45991;BME280;31721;41.740;-88.000;2023-02-11T09:22:26;100243.93;;;-2.90;46.27
45991;BME280;31721;41.740;-88.000;2023-02-11T09:24:54;100246.30;;;-3.09;46.32
45991;BME280;31721;41.740;-88.000;2023-02-11T09:27:21;100246.79;;;-3.24;46.08
45991;BME280;31721;41.740;-88.000;2023-02-11T09:29:49;100245.72;;;-3.40;46.40
45991;BME280;31721;41.740;-88.000;2023-02-11T09:32:17;100242.66;;;-3.40;46.77
45991;BME280;31721;41.740;-88.000;2023-02-11T09:34:44;100247.35;;;-3.57;46.86
45991;BME280;31721;41.740;-88.000;2023-02-11T09:37:12;100248.94;;;-3.41;47.06
45991;BME280;31721;41.740;-88.000;2023-02-11T09:39:40;100247.25;;;-3.48;47.33
45991;BME280;31721;41.740;-88.000;2023-02-11T09:42:35;100247.66;;;-3.29;47.59
45991;BME280;31721;41.740;-88.000;2023-02-11T09:45:09;100246.17;;;-3.38;47.62
45991;BME280;31721;41.740;-88.000;2023-02-11T09:47:46;100253.04;;;-3.28;47.67
45991;BME280;31721;41.740;-88.000;2023-02-11T09:50:18;100253.30;;;-3.43;47.83
45991;BME280;31721;41.740;-88.000;2023-02-11T09:53:00;100255.51;;;-3.42;48.08
45991;BME280;31721;41.740;-88.000;2023-02-11T09:55:33;100256.91;;;-3.38;48.24
45991;BME280;31721;41.740;-88.000;2023-02-11T09:58:03;100257.80;;;-3.01;47.99
45991;BME280;31721;41.740;-88.000;2023-02-11T10:00:36;100256.99;;;-3.08;47.76
45991;BME280;31721;41.740;-88.000;2023-02-11T10:03:17;100262.15;;;-2.89;47.71
45991;BME280;31721;41.740;-88.000;2023-02-11T10:06:03;100267.18;;;-2.89;47.38
45991;BME280;31721;41.740;-88.000;2023-02-11T10:08:41;100263.52;;;-3.00;47.44
45991;BME280;31721;41.740;-88.000;2023-02-11T10:11:18;100264.18;;;-2.95;47.57
45991;BME280;31721;41.740;-88.000;2023-02-11T10:13:57;100262.87;;;-2.93;47.65
45991;BME280;31721;41.740;-88.000;2023-02-11T10:16:39;100264.22;;;-2.94;47.61
45991;BME280;31721;41.740;-88.000;2023-02-11T10:19:19;100264.30;;;-3.01;47.52
45991;BME280;31721;41.740;-88.000;2023-02-11T10:22:00;100271.58;;;-2.98;47.72
45991;BME280;31721;41.740;-88.000;2023-02-11T10:24:31;100268.95;;;-2.97;47.65
45991;BME280;31721;41.740;-88.000;2023-02-11T10:26:59;100271.29;;;-2.99;47.74
45991;BME280;31721;41.740;-88.000;2023-02-11T10:29:35;100269.97;;;-3.06;47.59
45991;BME280;31721;41.740;-88.000;2023-02-11T10:32:14;100272.46;;;-3.08;47.68
45991;BME280;31721;41.740;-88.000;2023-02-11T10:34:48;100273.72;;;-3.09;47.84
45991;BME280;31721;41.740;-88.000;2023-02-11T10:37:16;100272.81;;;-3.12;47.93
45991;BME280;31721;41.740;-88.000;2023-02-11T10:39:44;100274.92;;;-3.13;47.88
45991;BME280;31721;41.740;-88.000;2023-02-11T10:42:13;100275.58;;;-2.99;47.93
45991;BME280;31721;41.740;-88.000;2023-02-11T10:44:48;100271.42;;;-3.21;48.02
45991;BME280;31721;41.740;-88.000;2023-02-11T10:47:24;100271.14;;;-3.23;48.13
45991;BME280;31721;41.740;-88.000;2023-02-11T10:49:55;100268.76;;;-3.31;47.98
45991;BME280;31721;41.740;-88.000;2023-02-11T10:52:24;100270.66;;;-3.49;48.02
45991;BME280;31721;41.740;-88.000;2023-02-11T10:55:03;100271.08;;;-3.45;48.19
45991;BME280;31721;41.740;-88.000;2023-02-11T10:57:34;100268.54;;;-3.49;48.40
45991;BME280;31721;41.740;-88.000;2023-02-11T11:00:18;100270.06;;;-3.54;48.48
45991;BME280;31721;41.740;-88.000;2023-02-11T11:02:52;100268.51;;;-3.60;48.76
45991;BME280;31721;41.740;-88.000;2023-02-11T11:05:27;100269.11;;;-3.52;48.99
45991;BME280;31721;41.740;-88.000;2023-02-11T11:07:58;100269.43;;;-3.42;49.03
45991;BME280;31721;41.740;-88.000;2023-02-11T11:10:37;100268.23;;;-3.51;48.98
45991;BME280;31721;41.740;-88.000;2023-02-11T11:13:07;100268.02;;;-3.51;49.15
45991;BME280;31721;41.740;-88.000;2023-02-11T11:16:07;100267.62;;;-3.33;49.13
45991;BME280;31721;41.740;-88.000;2023-02-11T11:18:35;100267.28;;;-3.29;49.12
45991;BME280;31721;41.740;-88.000;2023-02-11T11:21:05;100270.17;;;-3.29;49.10
45991;BME280;31721;41.740;-88.000;2023-02-11T11:23:38;100265.19;;;-3.48;49.06
45991;BME280;31721;41.740;-88.000;2023-02-11T11:26:09;100266.14;;;-3.34;49.16
45991;BME280;31721;41.740;-88.000;2023-02-11T11:28:40;100263.83;;;-3.46;49.16
45991;BME280;31721;41.740;-88.000;2023-02-11T11:31:13;100261.46;;;-3.48;49.13
45991;BME280;31721;41.740;-88.000;2023-02-11T11:33:42;100259.14;;;-3.40;49.33
45991;BME280;31721;41.740;-88.000;2023-02-11T11:36:13;100257.81;;;-3.41;49.15
45991;BME280;31721;41.740;-88.000;2023-02-11T11:38:44;100259.28;;;-3.66;49.20
45991;BME280;31721;41.740;-88.000;2023-02-11T11:41:17;100263.31;;;-3.66;49.29
45991;BME280;31721;41.740;-88.000;2023-02-11T11:44:13;100264.36;;;-3.68;49.38
45991;BME280;31721;41.740;-88.000;2023-02-11T11:46:45;100262.06;;;-3.72;49.58
45991;BME280;31721;41.740;-88.000;2023-02-11T11:49:22;100264.12;;;-3.70;49.82
45991;BME280;31721;41.740;-88.000;2023-02-11T11:52:01;100258.37;;;-3.68;49.86
45991;BME280;31721;41.740;-88.000;2023-02-11T11:54:36;100252.53;;;-3.74;49.82
45991;BME280;31721;41.740;-88.000;2023-02-11T11:57:11;100250.72;;;-3.84;50.01
45991;BME280;31721;41.740;-88.000;2023-02-11T11:59:40;100251.16;;;-3.66;49.87
45991;BME280;31721;41.740;-88.000;2023-02-11T12:02:30;100249.67;;;-3.85;49.72
45991;BME280;31721;41.740;-88.000;2023-02-11T12:05:08;100250.15;;;-3.82;50.13
45991;BME280;31721;41.740;-88.000;2023-02-11T12:07:49;100253.18;;;-3.86;50.18
45991;BME280;31721;41.740;-88.000;2023-02-11T12:10:33;100253.83;;;-3.77;50.20
45991;BME280;31721;41.740;-88.000;2023-02-11T12:13:11;100255.92;;;-3.74;50.16
45991;BME280;31721;41.740;-88.000;2023-02-11T12:15:47;100258.82;;;-3.78;50.09
45991;BME280;31721;41.740;-88.000;2023-02-11T12:18:33;100258.80;;;-3.80;50.13
45991;BME280;31721;41.740;-88.000;2023-02-11T12:21:16;100261.26;;;-3.86;50.30
45991;BME280;31721;41.740;-88.000;2023-02-11T12:24:00;100266.62;;;-3.90;50.21
45991;BME280;31721;41.740;-88.000;2023-02-11T12:26:34;100268.30;;;-3.77;50.28
45991;BME280;31721;41.740;-88.000;2023-02-11T12:29:15;100273.54;;;-3.94;50.35
45991;BME280;31721;41.740;-88.000;2023-02-11T12:31:57;100277.75;;;-3.75;50.56
45991;BME280;31721;41.740;-88.000;2023-02-11T12:34:41;100277.86;;;-3.66;50.53
45991;BME280;31721;41.740;-88.000;2023-02-11T12:37:24;100279.25;;;-3.77;50.46
45991;BME280;31721;41.740;-88.000;2023-02-11T12:40:00;100277.45;;;-3.72;50.40
45991;BME280;31721;41.740;-88.000;2023-02-11T12:42:38;100280.20;;;-3.62;50.22
45991;BME280;31721;41.740;-88.000;2023-02-11T12:45:24;100284.23;;;-3.66;50.15
45991;BME280;31721;41.740;-88.000;2023-02-11T12:48:09;100280.73;;;-3.65;50.23
45991;BME280;31721;41.740;-88.000;2023-02-11T12:50:47;100287.85;;;-3.76;50.17
45991;BME280;31721;41.740;-88.000;2023-02-11T12:53:35;100288.26;;;-3.60;50.29
45991;BME280;31721;41.740;-88.000;2023-02-11T12:56:13;100286.74;;;-3.59;50.27